Delaware — WDJ3161 — position and weather

sailwx.info

Track history (hours):
 
Tides and Currents Weather Stations Pressure Air Temp Water Temp Dewpoint Dewpoint Depression Visibility Wind Speed Wind Dir Waves Ship Positions

Delaware

Owner: Vane Line Bunkering, Inc., Philadelphia, PA. More information available from US FCC via Universal Licensing System and Coast Guard Vessel Documentation Center.

Last reported at 2018-Apr-20 14:01 UTC. Time now 2018-Apr-20 14:26 UTC.
Position N 40°40' W 074°03'.

Length 32 m.

Type: Tug. MMSI: 367303000.

Date/timePositionNaut miles runAvg speedWind from/ knotsBaromVisibWave heightAir tempDewpointWater temp
2018-Apr-20 14:01N 40°40' W 074°03'4 7.0
2018-Apr-20 13:31N 40°39' W 074°07'2 3.3
2018-Apr-20 13:00N 40°40' W 074°09'0 0.0
2018-Apr-20 12:29N 40°40' W 074°09'0 0.0
2018-Apr-20 12:00N 40°40' W 074°09'0 0.0
2018-Apr-20 11:31N 40°40' W 074°09'1 1.0
2018-Apr-20 11:00N 40°40' W 074°08'1 2.0
2018-Apr-20 10:30N 40°41' W 074°08'1 1.2
2018-Apr-20 10:01N 40°41' W 074°08'2 4.3
2018-Apr-20 09:31N 40°39' W 074°08'3 6.7
2018-Apr-20 09:01N 40°39' W 074°04'3 5.2
2018-Apr-20 08:31N 40°40' W 074°00'1 1.4
2018-Apr-20 08:01N 40°40' W 074°01'3 6.7
2018-Apr-20 07:30N 40°39' W 074°06'0 0.3
2018-Apr-20 07:00N 40°39' W 074°06'0 0.0
2018-Apr-20 06:31N 40°39' W 074°06'0 0.0
2018-Apr-20 06:00N 40°39' W 074°06'0 0.0
2018-Apr-20 05:30N 40°39' W 074°06'0 0.0
2018-Apr-20 05:01N 40°39' W 074°06'0 0.0
2018-Apr-20 04:30N 40°39' W 074°06'0 0.0
2018-Apr-20 04:01N 40°39' W 074°06'1 1.9
2018-Apr-20 03:31N 40°39' W 074°07'2 3.8
2018-Apr-20 03:01N 40°39' W 074°05'2 4.4
2018-Apr-20 02:31N 40°40' W 074°02'0 0.1
2018-Apr-20 02:00N 40°40' W 074°02'0 0.1
2018-Apr-20 01:30N 40°40' W 074°02'0 0.0
2018-Apr-20 01:00N 40°40' W 074°02'0 0.0
2018-Apr-20 00:30N 40°40' W 074°02'0 0.1
2018-Apr-20 00:00N 40°40' W 074°02'0 0.1
2018-Apr-19 23:30N 40°40' W 074°02'0 0.0
2018-Apr-19 23:00N 40°40' W 074°02'0 0.0
2018-Apr-19 22:31N 40°40' W 074°02'0 0.3
2018-Apr-19 22:01N 40°40' W 074°02'0 0.5
2018-Apr-19 21:30N 40°40' W 074°02'4 7.6
2018-Apr-19 21:01N 40°44' W 074°01'611.7
2018-Apr-19 20:30N 40°49' W 073°58'611.2
2018-Apr-19 20:00N 40°54' W 073°55'4 0.1
2018-Apr-18 05:05N 40°58' W 073°54'1 7.5
2018-Apr-18 04:56N 40°57' W 073°54'3 7.8
2018-Apr-18 04:30N 40°53' W 073°56'4 8.4
2018-Apr-18 04:00N 40°49' W 073°58'4 8.8
2018-Apr-18 03:31N 40°46' W 074°01'4 8.6
2018-Apr-18 03:00N 40°42' W 074°02'3 6.9
2018-Apr-18 02:31N 40°39' W 074°05'2 2.9
2018-Apr-18 01:58N 40°39' W 074°07'0 0.0
2018-Apr-18 01:31N 40°39' W 074°07'0 0.0
2018-Apr-18 01:00N 40°39' W 074°07'0 0.0
2018-Apr-18 00:29N 40°39' W 074°07'0 0.0
2018-Apr-18 00:00N 40°39' W 074°07'0 0.0
2018-Apr-17 23:30N 40°39' W 074°07'0 0.1
2018-Apr-17 23:00N 40°39' W 074°07'5 9.5
2018-Apr-17 22:30N 40°41' W 074°01'1 2.0
2018-Apr-17 22:00N 40°41' W 074°00'0 0.0
2018-Apr-17 21:30N 40°41' W 074°00'0 0.2
2018-Apr-17 21:00N 40°42' W 074°00'1 3.0
2018-Apr-17 20:30N 40°40' W 074°01'1 1.2
2018-Apr-17 20:00N 40°40' W 074°01'2 3.8
2018-Apr-17 19:30N 40°39' W 074°02'3 6.0
2018-Apr-17 19:00N 40°36' W 074°02'0 0.2
2018-Apr-17 18:30N 40°36' W 074°02'0 0.1
2018-Apr-17 18:00N 40°36' W 074°02'0 0.0
2018-Apr-17 17:30N 40°36' W 074°02'0 0.1
2018-Apr-17 16:59N 40°36' W 074°02'0 0.0
2018-Apr-17 16:29N 40°36' W 074°02'0 0.1
2018-Apr-17 16:00N 40°36' W 074°02'0 0.3
2018-Apr-17 15:30N 40°36' W 074°02'4 8.5
2018-Apr-17 15:01N 40°39' W 074°05'1 1.5
2018-Apr-17 14:30N 40°39' W 074°06'0 0.2
2018-Apr-17 14:01N 40°39' W 074°06'0 0.0
2018-Apr-17 13:30N 40°39' W 074°06'0 0.0
2018-Apr-17 13:01N 40°39' W 074°06'0 0.0
2018-Apr-17 12:30N 40°39' W 074°06'0 0.0
2018-Apr-17 12:00N 40°39' W 074°06'0 0.0
2018-Apr-17 11:30N 40°39' W 074°06'0 0.0
2018-Apr-17 11:01N 40°39' W 074°06'0 0.0
2018-Apr-17 10:31N 40°39' W 074°06'0 0.0
2018-Apr-17 10:00N 40°39' W 074°06'0 0.0
2018-Apr-17 09:30N 40°39' W 074°06'1 1.4
2018-Apr-17 09:01N 40°39' W 074°05'0 0.0
2018-Apr-17 08:31N 40°39' W 074°05'0 0.1
2018-Apr-17 08:01N 40°39' W 074°05'2 4.2
2018-Apr-17 07:31N 40°40' W 074°03'4 8.2
2018-Apr-17 07:01N 40°44' W 074°01'4 8.5
2018-Apr-17 06:29N 40°48' W 073°59'4 8.6
2018-Apr-17 06:00N 40°52' W 073°56'4 8.1
2018-Apr-17 05:30N 40°56' W 073°55'  
2018-Apr-14 15:57N 40°58' W 073°54'3 6.3
2018-Apr-14 15:30N 40°55' W 073°55'3 6.8
2018-Apr-14 14:59N 40°52' W 073°57'4 7.1
2018-Apr-14 14:29N 40°48' W 073°59'4 7.5
2018-Apr-14 14:00N 40°45' W 074°01'4 7.7
2018-Apr-14 13:30N 40°41' W 074°02'3 6.5
2018-Apr-14 13:01N 40°39' W 074°05'0 0.7
2018-Apr-14 12:31N 40°39' W 074°05'1 1.5
2018-Apr-14 12:01N 40°39' W 074°06'0 0.0
2018-Apr-14 11:29N 40°39' W 074°06'0 0.0
2018-Apr-14 11:00N 40°39' W 074°06'0 0.0
2018-Apr-14 10:30N 40°39' W 074°06'0 0.0
2018-Apr-14 10:01N 40°39' W 074°06'0 0.0
2018-Apr-14 09:30N 40°39' W 074°06'0 0.0
2018-Apr-14 09:00N 40°39' W 074°06'0 0.0
2018-Apr-14 08:30N 40°39' W 074°06'0 0.0
2018-Apr-14 08:01N 40°39' W 074°06'0 0.0
2018-Apr-14 07:31N 40°39' W 074°06'0 0.0
2018-Apr-14 07:01N 40°39' W 074°06'1 1.5
2018-Apr-14 06:30N 40°39' W 074°05'0 0.6
2018-Apr-14 06:00N 40°39' W 074°05'3 7.0
2018-Apr-14 05:30N 40°42' W 074°02'4 8.9
2018-Apr-14 05:01N 40°46' W 074°00'1 2.8
2018-Apr-14 04:29N 40°47' W 073°59'0 0.0
2018-Apr-14 04:00N 40°47' W 073°59'0 0.4
2018-Apr-14 03:30N 40°48' W 073°59'0 0.2
2018-Apr-14 03:00N 40°48' W 073°59'0 0.0
2018-Apr-14 02:30N 40°48' W 073°59'0 0.1
2018-Apr-14 02:00N 40°48' W 073°59'0 0.0
2018-Apr-14 01:31N 40°48' W 073°59'0 0.0
2018-Apr-14 01:00N 40°48' W 073°59'0 0.0
2018-Apr-14 00:30N 40°48' W 073°59'0 1.0
2018-Apr-14 00:01N 40°47' W 073°60'0 0.2
2018-Apr-13 23:30N 40°47' W 073°60'0 0.1
2018-Apr-13 23:00N 40°47' W 073°60'0 1.0
2018-Apr-13 22:30N 40°47' W 073°60'3 5.8
2018-Apr-13 22:00N 40°44' W 074°01'3 5.1
2018-Apr-13 21:30N 40°42' W 074°02'3 5.9
2018-Apr-13 21:01N 40°39' W 074°04'3 5.4
2018-Apr-13 20:30N 40°39' W 074°08'3 5.9
2018-Apr-13 20:00N 40°38' W 074°12'1 1.8
2018-Apr-13 19:30N 40°38' W 074°12'0 0.3
2018-Apr-13 19:00N 40°38' W 074°12'0 0.3
2018-Apr-13 18:30N 40°38' W 074°12'3 6.3
2018-Apr-13 18:00N 40°39' W 074°08'1 2.9
2018-Apr-13 17:30N 40°39' W 074°07'2 3.5
2018-Apr-13 16:59N 40°39' W 074°09'1 2.4
2018-Apr-13 16:31N 40°40' W 074°08'1 1.2
2018-Apr-13 16:01N 40°41' W 074°09'0 1.0
2018-Apr-13 15:30N 40°41' W 074°09'1 3.0
2018-Apr-13 15:00N 40°40' W 074°09'0 0.9
2018-Apr-13 14:30N 40°39' W 074°09'2 3.7
2018-Apr-13 14:00N 40°39' W 074°06'0 0.1
2018-Apr-13 13:30N 40°39' W 074°06'1 2.6
2018-Apr-13 13:00N 40°39' W 074°08'2 4.4
2018-Apr-13 12:30N 40°41' W 074°09'0 0.0
2018-Apr-13 12:01N 40°41' W 074°09'1 1.6
2018-Apr-13 11:30N 40°41' W 074°10'0 0.0
2018-Apr-13 11:00N 40°41' W 074°10'0 0.0
2018-Apr-13 10:30N 40°41' W 074°10'0 0.3
2018-Apr-13 10:00N 40°41' W 074°09'0 0.7
2018-Apr-13 09:30N 40°41' W 074°09'0 0.0
2018-Apr-13 09:00N 40°41' W 074°09'0 0.0
2018-Apr-13 08:30N 40°41' W 074°09'0 0.0
2018-Apr-13 08:00N 40°41' W 074°09'0 0.0
2018-Apr-13 07:31N 40°41' W 074°09'0 0.0
2018-Apr-13 07:01N 40°41' W 074°09'0 0.0
2018-Apr-13 06:30N 40°41' W 074°09'0 0.0
2018-Apr-13 06:00N 40°41' W 074°09'0 0.0
2018-Apr-13 05:30N 40°41' W 074°09'0 0.0
2018-Apr-13 05:00N 40°41' W 074°09'0 0.0
2018-Apr-13 04:30N 40°41' W 074°09'0 0.0
2018-Apr-13 03:59N 40°41' W 074°09'0 0.0
2018-Apr-13 03:30N 40°41' W 074°09'1 2.2
2018-Apr-13 03:00N 40°40' W 074°08'2 4.7
2018-Apr-13 02:30N 40°39' W 074°06'3 6.8
2018-Apr-13 02:00N 40°40' W 074°01'1 1.8
2018-Apr-13 01:30N 40°40' W 074°00'0 0.0
2018-Apr-13 01:00N 40°40' W 074°00'1 1.2
2018-Apr-13 00:31N 40°40' W 074°01'2 3.4
2018-Apr-13 00:00N 40°41' W 074°00'1 2.6
2018-Apr-12 23:30N 40°41' W 074°02'2 5.0
2018-Apr-12 23:00N 40°39' W 074°04'2 4.8
2018-Apr-12 22:30N 40°39' W 074°07'2 4.9
2018-Apr-12 22:00N 40°39' W 074°11'1 1.5
2018-Apr-12 21:30N 40°38' W 074°11'0 0.0
2018-Apr-12 20:59N 40°38' W 074°11'0 0.5
2018-Apr-12 20:30N 40°39' W 074°11'1 2.0
2018-Apr-12 20:00N 40°38' W 074°12'0 0.4
2018-Apr-12 19:30N 40°38' W 074°12'1 2.8
2018-Apr-12 18:59N 40°39' W 074°11'2 4.1
2018-Apr-12 18:31N 40°39' W 074°09'4 7.1
2018-Apr-12 18:00N 40°39' W 074°04'1 2.1
2018-Apr-12 17:30N 40°39' W 074°03'0 0.0
2018-Apr-12 17:01N 40°39' W 074°03'0 0.0
2018-Apr-12 16:30N 40°39' W 074°03'0 0.0
2018-Apr-12 16:00N 40°39' W 074°03'0 0.0
2018-Apr-12 15:30N 40°39' W 074°03'1 1.0
2018-Apr-12 15:00N 40°39' W 074°03'4 8.7
2018-Apr-12 14:30N 40°38' W 074°09'2 3.0
2018-Apr-12 14:00N 40°40' W 074°09'0 0.0
2018-Apr-12 13:30N 40°40' W 074°09'0 0.0
2018-Apr-12 13:00N 40°40' W 074°09'0 0.0
2018-Apr-12 12:30N 40°40' W 074°09'1 1.4
2018-Apr-12 12:00N 40°39' W 074°09'4 7.2
2018-Apr-12 11:30N 40°39' W 074°04'3 2.9
2018-Apr-12 10:30N 40°40' W 074°00'3 6.3
2018-Apr-12 10:00N 40°37' W 074°03'2 3.5
2018-Apr-12 09:30N 40°36' W 074°02'0 0.1
2018-Apr-12 09:00N 40°36' W 074°02'0 0.1
2018-Apr-12 08:30N 40°36' W 074°02'0 0.2
2018-Apr-12 08:00N 40°36' W 074°02'0 0.1
2018-Apr-12 07:30N 40°36' W 074°02'0 0.0
2018-Apr-12 07:00N 40°36' W 074°02'0 0.0
2018-Apr-12 06:30N 40°36' W 074°02'0 0.0
2018-Apr-12 06:00N 40°36' W 074°02'1 1.1
2018-Apr-12 05:30N 40°35' W 074°02'3 6.4
2018-Apr-12 05:00N 40°38' W 074°03'2 4.5
2018-Apr-12 04:30N 40°40' W 074°04'0 0.0
2018-Apr-12 04:00N 40°40' W 074°04'0 0.0
2018-Apr-12 03:30N 40°40' W 074°04'0 0.0
2018-Apr-12 03:01N 40°40' W 074°04'0 0.0
2018-Apr-12 02:30N 40°40' W 074°04'0 0.0
2018-Apr-12 02:00N 40°40' W 074°04'0 0.2
2018-Apr-12 01:30N 40°40' W 074°04'2 3.6
2018-Apr-12 01:00N 40°38' W 074°04'0 0.2
2018-Apr-12 00:30N 40°38' W 074°04'0 0.3
2018-Apr-12 00:00N 40°38' W 074°04'0 0.2
2018-Apr-11 23:30N 40°39' W 074°04'0 0.1
2018-Apr-11 23:00N 40°39' W 074°04'0 0.0
2018-Apr-11 22:30N 40°39' W 074°04'0 0.0
2018-Apr-11 22:00N 40°39' W 074°04'0 0.0
2018-Apr-11 21:30N 40°39' W 074°04'1 1.7
2018-Apr-11 21:00N 40°39' W 074°04'1 1.9
2018-Apr-11 20:31N 40°40' W 074°04'0 0.0
2018-Apr-11 20:00N 40°40' W 074°04'0 0.0
2018-Apr-11 19:30N 40°40' W 074°04'0 0.0
2018-Apr-11 19:00N 40°40' W 074°04'0 0.0
2018-Apr-11 18:30N 40°40' W 074°04'1 2.9
2018-Apr-11 18:00N 40°39' W 074°05'3 5.1
2018-Apr-11 17:30N 40°39' W 074°09'2 4.3
2018-Apr-11 17:00N 40°41' W 074°08'0 0.0
2018-Apr-11 16:30N 40°41' W 074°08'0 0.0
2018-Apr-11 16:01N 40°41' W 074°08'0 0.0
2018-Apr-11 15:31N 40°41' W 074°08'0 0.0
2018-Apr-11 15:00N 40°41' W 074°08'0 0.0
2018-Apr-11 14:30N 40°41' W 074°08'0 0.0
2018-Apr-11 14:00N 40°41' W 074°08'0 0.7
2018-Apr-11 13:30N 40°41' W 074°08'2 5.0
2018-Apr-11 13:00N 40°39' W 074°08'3 5.5
2018-Apr-11 12:30N 40°38' W 074°04'0 0.3
2018-Apr-11 12:00N 40°38' W 074°04'1 1.5
2018-Apr-11 11:30N 40°37' W 074°04'0 0.3
2018-Apr-11 11:00N 40°37' W 074°04'0 0.4
2018-Apr-11 10:30N 40°38' W 074°04'1 1.5
2018-Apr-11 10:01N 40°38' W 074°04'2 4.4
2018-Apr-11 09:30N 40°40' W 074°03'0 0.0
2018-Apr-11 09:01N 40°40' W 074°03'2 4.2
2018-Apr-11 08:30N 40°39' W 074°05'0 0.9
2018-Apr-11 08:00N 40°39' W 074°06'1 1.9
2018-Apr-11 07:30N 40°39' W 074°04'2 3.3
2018-Apr-11 07:00N 40°40' W 074°03'1 2.0
2018-Apr-11 06:30N 40°40' W 074°04'0 0.0
2018-Apr-11 06:00N 40°40' W 074°04'0 0.0
2018-Apr-11 05:31N 40°40' W 074°04'2 5.0
2018-Apr-11 05:00N 40°40' W 074°01'1 1.2
2018-Apr-11 04:30N 40°40' W 074°00'4 7.4
2018-Apr-11 04:01N 40°39' W 074°05'1 1.3
2018-Apr-11 03:30N 40°39' W 074°04'2 4.1
2018-Apr-11 03:01N 40°40' W 074°02'0 0.0
2018-Apr-11 02:30N 40°40' W 074°02'0 0.0
2018-Apr-11 02:01N 40°40' W 074°02'0 0.0
2018-Apr-11 01:30N 40°40' W 074°02'0 0.0
2018-Apr-11 01:01N 40°40' W 074°02'0 0.0
2018-Apr-11 00:30N 40°40' W 074°02'0 0.1
2018-Apr-11 00:01N 40°40' W 074°02'2 3.2
2018-Apr-10 23:30N 40°42' W 074°02'1 1.4
2018-Apr-10 23:00N 40°42' W 074°01'3 6.4
2018-Apr-10 22:30N 40°44' W 073°58'3 6.3
2018-Apr-10 22:00N 40°47' W 073°56'3 5.8
2018-Apr-10 21:28N 40°48' W 073°52'3 6.9
2018-Apr-10 21:00N 40°48' W 073°48'4 7.5
2018-Apr-10 20:30N 40°51' W 073°45'47 7.4
2018-Apr-10 14:12N 41°06' W 072°46'  
Track history (hours):
 
Tides and Currents Weather Stations Pressure Air Temp Water Temp Dewpoint Dewpoint Depression Visibility Wind Speed Wind Dir Waves Ship Positions

Delaware

Owner: Vane Line Bunkering, Inc., Philadelphia, PA. More information available from US FCC via Universal Licensing System and Coast Guard Vessel Documentation Center.

Last reported at 2018-Apr-20 14:01 UTC. Time now 2018-Apr-20 14:26 UTC.
Position N 40°40' W 074°03'.

Length 32 m.

Type: Tug. MMSI: 367303000.

Date/timePositionNaut miles runAvg speedWind from/ knotsBaromVisibWave heightAir tempDewpointWater temp
2018-Apr-20 14:01N 40°40' W 074°03'4 7.0
2018-Apr-20 13:31N 40°39' W 074°07'2 3.3
2018-Apr-20 13:00N 40°40' W 074°09'0 0.0
2018-Apr-20 12:29N 40°40' W 074°09'0 0.0
2018-Apr-20 12:00N 40°40' W 074°09'0 0.0
2018-Apr-20 11:31N 40°40' W 074°09'1 1.0
2018-Apr-20 11:00N 40°40' W 074°08'1 2.0
2018-Apr-20 10:30N 40°41' W 074°08'1 1.2
2018-Apr-20 10:01N 40°41' W 074°08'2 4.3
2018-Apr-20 09:31N 40°39' W 074°08'3 6.7
2018-Apr-20 09:01N 40°39' W 074°04'3 5.2
2018-Apr-20 08:31N 40°40' W 074°00'1 1.4
2018-Apr-20 08:01N 40°40' W 074°01'3 6.7
2018-Apr-20 07:30N 40°39' W 074°06'0 0.3
2018-Apr-20 07:00N 40°39' W 074°06'0 0.0
2018-Apr-20 06:31N 40°39' W 074°06'0 0.0
2018-Apr-20 06:00N 40°39' W 074°06'0 0.0
2018-Apr-20 05:30N 40°39' W 074°06'0 0.0
2018-Apr-20 05:01N 40°39' W 074°06'0 0.0
2018-Apr-20 04:30N 40°39' W 074°06'0 0.0
2018-Apr-20 04:01N 40°39' W 074°06'1 1.9
2018-Apr-20 03:31N 40°39' W 074°07'2 3.8
2018-Apr-20 03:01N 40°39' W 074°05'2 4.4
2018-Apr-20 02:31N 40°40' W 074°02'0 0.1
2018-Apr-20 02:00N 40°40' W 074°02'0 0.1
2018-Apr-20 01:30N 40°40' W 074°02'0 0.0
2018-Apr-20 01:00N 40°40' W 074°02'0 0.0
2018-Apr-20 00:30N 40°40' W 074°02'0 0.1
2018-Apr-20 00:00N 40°40' W 074°02'0 0.1
2018-Apr-19 23:30N 40°40' W 074°02'0 0.0
2018-Apr-19 23:00N 40°40' W 074°02'0 0.0
2018-Apr-19 22:31N 40°40' W 074°02'0 0.3
2018-Apr-19 22:01N 40°40' W 074°02'0 0.5
2018-Apr-19 21:30N 40°40' W 074°02'4 7.6
2018-Apr-19 21:01N 40°44' W 074°01'611.7
2018-Apr-19 20:30N 40°49' W 073°58'611.2
2018-Apr-19 20:00N 40°54' W 073°55'4 0.1
2018-Apr-18 05:05N 40°58' W 073°54'1 7.5
2018-Apr-18 04:56N 40°57' W 073°54'3 7.8
2018-Apr-18 04:30N 40°53' W 073°56'4 8.4
2018-Apr-18 04:00N 40°49' W 073°58'4 8.8
2018-Apr-18 03:31N 40°46' W 074°01'4 8.6
2018-Apr-18 03:00N 40°42' W 074°02'3 6.9
2018-Apr-18 02:31N 40°39' W 074°05'2 2.9
2018-Apr-18 01:58N 40°39' W 074°07'0 0.0
2018-Apr-18 01:31N 40°39' W 074°07'0 0.0
2018-Apr-18 01:00N 40°39' W 074°07'0 0.0
2018-Apr-18 00:29N 40°39' W 074°07'0 0.0
2018-Apr-18 00:00N 40°39' W 074°07'0 0.0
2018-Apr-17 23:30N 40°39' W 074°07'0 0.1
2018-Apr-17 23:00N 40°39' W 074°07'5 9.5
2018-Apr-17 22:30N 40°41' W 074°01'1 2.0
2018-Apr-17 22:00N 40°41' W 074°00'0 0.0
2018-Apr-17 21:30N 40°41' W 074°00'0 0.2
2018-Apr-17 21:00N 40°42' W 074°00'1 3.0
2018-Apr-17 20:30N 40°40' W 074°01'1 1.2
2018-Apr-17 20:00N 40°40' W 074°01'2 3.8
2018-Apr-17 19:30N 40°39' W 074°02'3 6.0
2018-Apr-17 19:00N 40°36' W 074°02'0 0.2
2018-Apr-17 18:30N 40°36' W 074°02'0 0.1
2018-Apr-17 18:00N 40°36' W 074°02'0 0.0
2018-Apr-17 17:30N 40°36' W 074°02'0 0.1
2018-Apr-17 16:59N 40°36' W 074°02'0 0.0
2018-Apr-17 16:29N 40°36' W 074°02'0 0.1
2018-Apr-17 16:00N 40°36' W 074°02'0 0.3
2018-Apr-17 15:30N 40°36' W 074°02'4 8.5
2018-Apr-17 15:01N 40°39' W 074°05'1 1.5
2018-Apr-17 14:30N 40°39' W 074°06'0 0.2
2018-Apr-17 14:01N 40°39' W 074°06'0 0.0
2018-Apr-17 13:30N 40°39' W 074°06'0 0.0
2018-Apr-17 13:01N 40°39' W 074°06'0 0.0
2018-Apr-17 12:30N 40°39' W 074°06'0 0.0
2018-Apr-17 12:00N 40°39' W 074°06'0 0.0
2018-Apr-17 11:30N 40°39' W 074°06'0 0.0
2018-Apr-17 11:01N 40°39' W 074°06'0 0.0
2018-Apr-17 10:31N 40°39' W 074°06'0 0.0
2018-Apr-17 10:00N 40°39' W 074°06'0 0.0
2018-Apr-17 09:30N 40°39' W 074°06'1 1.4
2018-Apr-17 09:01N 40°39' W 074°05'0 0.0
2018-Apr-17 08:31N 40°39' W 074°05'0 0.1
2018-Apr-17 08:01N 40°39' W 074°05'2 4.2
2018-Apr-17 07:31N 40°40' W 074°03'4 8.2
2018-Apr-17 07:01N 40°44' W 074°01'4 8.5
2018-Apr-17 06:29N 40°48' W 073°59'4 8.6
2018-Apr-17 06:00N 40°52' W 073°56'4 8.1
2018-Apr-17 05:30N 40°56' W 073°55'  
2018-Apr-14 15:57N 40°58' W 073°54'3 6.3
2018-Apr-14 15:30N 40°55' W 073°55'3 6.8
2018-Apr-14 14:59N 40°52' W 073°57'4 7.1
2018-Apr-14 14:29N 40°48' W 073°59'4 7.5
2018-Apr-14 14:00N 40°45' W 074°01'4 7.7
2018-Apr-14 13:30N 40°41' W 074°02'3 6.5
2018-Apr-14 13:01N 40°39' W 074°05'0 0.7
2018-Apr-14 12:31N 40°39' W 074°05'1 1.5
2018-Apr-14 12:01N 40°39' W 074°06'0 0.0
2018-Apr-14 11:29N 40°39' W 074°06'0 0.0
2018-Apr-14 11:00N 40°39' W 074°06'0 0.0
2018-Apr-14 10:30N 40°39' W 074°06'0 0.0
2018-Apr-14 10:01N 40°39' W 074°06'0 0.0
2018-Apr-14 09:30N 40°39' W 074°06'0 0.0
2018-Apr-14 09:00N 40°39' W 074°06'0 0.0
2018-Apr-14 08:30N 40°39' W 074°06'0 0.0
2018-Apr-14 08:01N 40°39' W 074°06'0 0.0
2018-Apr-14 07:31N 40°39' W 074°06'0 0.0
2018-Apr-14 07:01N 40°39' W 074°06'1 1.5
2018-Apr-14 06:30N 40°39' W 074°05'0 0.6
2018-Apr-14 06:00N 40°39' W 074°05'3 7.0
2018-Apr-14 05:30N 40°42' W 074°02'4 8.9
2018-Apr-14 05:01N 40°46' W 074°00'1 2.8
2018-Apr-14 04:29N 40°47' W 073°59'0 0.0
2018-Apr-14 04:00N 40°47' W 073°59'0 0.4
2018-Apr-14 03:30N 40°48' W 073°59'0 0.2
2018-Apr-14 03:00N 40°48' W 073°59'0 0.0
2018-Apr-14 02:30N 40°48' W 073°59'0 0.1
2018-Apr-14 02:00N 40°48' W 073°59'0 0.0
2018-Apr-14 01:31N 40°48' W 073°59'0 0.0
2018-Apr-14 01:00N 40°48' W 073°59'0 0.0
2018-Apr-14 00:30N 40°48' W 073°59'0 1.0
2018-Apr-14 00:01N 40°47' W 073°60'0 0.2
2018-Apr-13 23:30N 40°47' W 073°60'0 0.1
2018-Apr-13 23:00N 40°47' W 073°60'0 1.0
2018-Apr-13 22:30N 40°47' W 073°60'3 5.8
2018-Apr-13 22:00N 40°44' W 074°01'3 5.1
2018-Apr-13 21:30N 40°42' W 074°02'3 5.9
2018-Apr-13 21:01N 40°39' W 074°04'3 5.4
2018-Apr-13 20:30N 40°39' W 074°08'3 5.9
2018-Apr-13 20:00N 40°38' W 074°12'1 1.8
2018-Apr-13 19:30N 40°38' W 074°12'0 0.3
2018-Apr-13 19:00N 40°38' W 074°12'0 0.3
2018-Apr-13 18:30N 40°38' W 074°12'3 6.3
2018-Apr-13 18:00N 40°39' W 074°08'1 2.9
2018-Apr-13 17:30N 40°39' W 074°07'2 3.5
2018-Apr-13 16:59N 40°39' W 074°09'1 2.4
2018-Apr-13 16:31N 40°40' W 074°08'1 1.2
2018-Apr-13 16:01N 40°41' W 074°09'0 1.0
2018-Apr-13 15:30N 40°41' W 074°09'1 3.0
2018-Apr-13 15:00N 40°40' W 074°09'0 0.9
2018-Apr-13 14:30N 40°39' W 074°09'2 3.7
2018-Apr-13 14:00N 40°39' W 074°06'0 0.1
2018-Apr-13 13:30N 40°39' W 074°06'1 2.6
2018-Apr-13 13:00N 40°39' W 074°08'2 4.4
2018-Apr-13 12:30N 40°41' W 074°09'0 0.0
2018-Apr-13 12:01N 40°41' W 074°09'1 1.6
2018-Apr-13 11:30N 40°41' W 074°10'0 0.0
2018-Apr-13 11:00N 40°41' W 074°10'0 0.0
2018-Apr-13 10:30N 40°41' W 074°10'0 0.3
2018-Apr-13 10:00N 40°41' W 074°09'0 0.7
2018-Apr-13 09:30N 40°41' W 074°09'0 0.0
2018-Apr-13 09:00N 40°41' W 074°09'0 0.0
2018-Apr-13 08:30N 40°41' W 074°09'0 0.0
2018-Apr-13 08:00N 40°41' W 074°09'0 0.0
2018-Apr-13 07:31N 40°41' W 074°09'0 0.0
2018-Apr-13 07:01N 40°41' W 074°09'0 0.0
2018-Apr-13 06:30N 40°41' W 074°09'0 0.0
2018-Apr-13 06:00N 40°41' W 074°09'0 0.0
2018-Apr-13 05:30N 40°41' W 074°09'0 0.0
2018-Apr-13 05:00N 40°41' W 074°09'0 0.0
2018-Apr-13 04:30N 40°41' W 074°09'0 0.0
2018-Apr-13 03:59N 40°41' W 074°09'0 0.0
2018-Apr-13 03:30N 40°41' W 074°09'1 2.2
2018-Apr-13 03:00N 40°40' W 074°08'2 4.7
2018-Apr-13 02:30N 40°39' W 074°06'3 6.8
2018-Apr-13 02:00N 40°40' W 074°01'1 1.8
2018-Apr-13 01:30N 40°40' W 074°00'0 0.0
2018-Apr-13 01:00N 40°40' W 074°00'1 1.2
2018-Apr-13 00:31N 40°40' W 074°01'2 3.4
2018-Apr-13 00:00N 40°41' W 074°00'1 2.6
2018-Apr-12 23:30N 40°41' W 074°02'2 5.0
2018-Apr-12 23:00N 40°39' W 074°04'2 4.8
2018-Apr-12 22:30N 40°39' W 074°07'2 4.9
2018-Apr-12 22:00N 40°39' W 074°11'1 1.5
2018-Apr-12 21:30N 40°38' W 074°11'0 0.0
2018-Apr-12 20:59N 40°38' W 074°11'0 0.5
2018-Apr-12 20:30N 40°39' W 074°11'1 2.0
2018-Apr-12 20:00N 40°38' W 074°12'0 0.4
2018-Apr-12 19:30N 40°38' W 074°12'1 2.8
2018-Apr-12 18:59N 40°39' W 074°11'2 4.1
2018-Apr-12 18:31N 40°39' W 074°09'4 7.1
2018-Apr-12 18:00N 40°39' W 074°04'1 2.1
2018-Apr-12 17:30N 40°39' W 074°03'0 0.0
2018-Apr-12 17:01N 40°39' W 074°03'0 0.0
2018-Apr-12 16:30N 40°39' W 074°03'0 0.0
2018-Apr-12 16:00N 40°39' W 074°03'0 0.0
2018-Apr-12 15:30N 40°39' W 074°03'1 1.0
2018-Apr-12 15:00N 40°39' W 074°03'4 8.7
2018-Apr-12 14:30N 40°38' W 074°09'2 3.0
2018-Apr-12 14:00N 40°40' W 074°09'0 0.0
2018-Apr-12 13:30N 40°40' W 074°09'0 0.0
2018-Apr-12 13:00N 40°40' W 074°09'0 0.0
2018-Apr-12 12:30N 40°40' W 074°09'1 1.4
2018-Apr-12 12:00N 40°39' W 074°09'4 7.2
2018-Apr-12 11:30N 40°39' W 074°04'3 2.9
2018-Apr-12 10:30N 40°40' W 074°00'3 6.3
2018-Apr-12 10:00N 40°37' W 074°03'2 3.5
2018-Apr-12 09:30N 40°36' W 074°02'0 0.1
2018-Apr-12 09:00N 40°36' W 074°02'0 0.1
2018-Apr-12 08:30N 40°36' W 074°02'0 0.2
2018-Apr-12 08:00N 40°36' W 074°02'0 0.1
2018-Apr-12 07:30N 40°36' W 074°02'0 0.0
2018-Apr-12 07:00N 40°36' W 074°02'0 0.0
2018-Apr-12 06:30N 40°36' W 074°02'0 0.0
2018-Apr-12 06:00N 40°36' W 074°02'1 1.1
2018-Apr-12 05:30N 40°35' W 074°02'3 6.4
2018-Apr-12 05:00N 40°38' W 074°03'2 4.5
2018-Apr-12 04:30N 40°40' W 074°04'0 0.0
2018-Apr-12 04:00N 40°40' W 074°04'0 0.0
2018-Apr-12 03:30N 40°40' W 074°04'0 0.0
2018-Apr-12 03:01N 40°40' W 074°04'0 0.0
2018-Apr-12 02:30N 40°40' W 074°04'0 0.0
2018-Apr-12 02:00N 40°40' W 074°04'0 0.2
2018-Apr-12 01:30N 40°40' W 074°04'2 3.6
2018-Apr-12 01:00N 40°38' W 074°04'0 0.2
2018-Apr-12 00:30N 40°38' W 074°04'0 0.3
2018-Apr-12 00:00N 40°38' W 074°04'0 0.2
2018-Apr-11 23:30N 40°39' W 074°04'0 0.1
2018-Apr-11 23:00N 40°39' W 074°04'0 0.0
2018-Apr-11 22:30N 40°39' W 074°04'0 0.0
2018-Apr-11 22:00N 40°39' W 074°04'0 0.0
2018-Apr-11 21:30N 40°39' W 074°04'1 1.7
2018-Apr-11 21:00N 40°39' W 074°04'1 1.9
2018-Apr-11 20:31N 40°40' W 074°04'0 0.0
2018-Apr-11 20:00N 40°40' W 074°04'0 0.0
2018-Apr-11 19:30N 40°40' W 074°04'0 0.0
2018-Apr-11 19:00N 40°40' W 074°04'0 0.0
2018-Apr-11 18:30N 40°40' W 074°04'1 2.9
2018-Apr-11 18:00N 40°39' W 074°05'3 5.1
2018-Apr-11 17:30N 40°39' W 074°09'2 4.3
2018-Apr-11 17:00N 40°41' W 074°08'0 0.0
2018-Apr-11 16:30N 40°41' W 074°08'0 0.0
2018-Apr-11 16:01N 40°41' W 074°08'0 0.0
2018-Apr-11 15:31N 40°41' W 074°08'0 0.0
2018-Apr-11 15:00N 40°41' W 074°08'0 0.0
2018-Apr-11 14:30N 40°41' W 074°08'0 0.0
2018-Apr-11 14:00N 40°41' W 074°08'0 0.7
2018-Apr-11 13:30N 40°41' W 074°08'2 5.0
2018-Apr-11 13:00N 40°39' W 074°08'3 5.5
2018-Apr-11 12:30N 40°38' W 074°04'0 0.3
2018-Apr-11 12:00N 40°38' W 074°04'1 1.5
2018-Apr-11 11:30N 40°37' W 074°04'0 0.3
2018-Apr-11 11:00N 40°37' W 074°04'0 0.4
2018-Apr-11 10:30N 40°38' W 074°04'1 1.5
2018-Apr-11 10:01N 40°38' W 074°04'2 4.4
2018-Apr-11 09:30N 40°40' W 074°03'0 0.0
2018-Apr-11 09:01N 40°40' W 074°03'2 4.2
2018-Apr-11 08:30N 40°39' W 074°05'0 0.9
2018-Apr-11 08:00N 40°39' W 074°06'1 1.9
2018-Apr-11 07:30N 40°39' W 074°04'2 3.3
2018-Apr-11 07:00N 40°40' W 074°03'1 2.0
2018-Apr-11 06:30N 40°40' W 074°04'0 0.0
2018-Apr-11 06:00N 40°40' W 074°04'0 0.0
2018-Apr-11 05:31N 40°40' W 074°04'2 5.0
2018-Apr-11 05:00N 40°40' W 074°01'1 1.2
2018-Apr-11 04:30N 40°40' W 074°00'4 7.4
2018-Apr-11 04:01N 40°39' W 074°05'1 1.3
2018-Apr-11 03:30N 40°39' W 074°04'2 4.1
2018-Apr-11 03:01N 40°40' W 074°02'0 0.0
2018-Apr-11 02:30N 40°40' W 074°02'0 0.0
2018-Apr-11 02:01N 40°40' W 074°02'0 0.0
2018-Apr-11 01:30N 40°40' W 074°02'0 0.0
2018-Apr-11 01:01N 40°40' W 074°02'0 0.0
2018-Apr-11 00:30N 40°40' W 074°02'0 0.1
2018-Apr-11 00:01N 40°40' W 074°02'2 3.2
2018-Apr-10 23:30N 40°42' W 074°02'1 1.4
2018-Apr-10 23:00N 40°42' W 074°01'3 6.4
2018-Apr-10 22:30N 40°44' W 073°58'3 6.3
2018-Apr-10 22:00N 40°47' W 073°56'3 5.8
2018-Apr-10 21:28N 40°48' W 073°52'3 6.9
2018-Apr-10 21:00N 40°48' W 073°48'4 7.5
2018-Apr-10 20:30N 40°51' W 073°45'47 7.4
2018-Apr-10 14:12N 41°06' W 072°46'  

Dump ship's entire track history